Архив погоды в Екатерино-Никольском

Метеограмма Екатерино-Никольское
Четверг, 16 Августа
Время местн. Темп Ветер Видим Явления Облачность нижн/средн/верх Атм. давл. Влжн Точка росы ВНГО R Сост. почвы Tg s
Напр Скр Прв ур.ст ур.м изм
07:00 - - - - 0.7 км - незначительная облачность - - - - - 2 км 320 - - -
04:00 +10.7° С-З 1 - 20 км - переменная облачность 758 765 -0.2 98% +10.4° более 2.5 км - - - -
01:00 +14.1° С-З 2 - 20 км - переменная облачность 758 765 +0.4 97% +13.6° - - - - -
Среда, 15 Августа
Время местн. Темп Ветер Видим Явления Облачность нижн/средн/верх Атм. давл. Влжн Точка росы ВНГО R Сост. почвы Tg s
Напр Скр Прв ур.ст ур.м изм
22:00 +13.3° С-З 1 - 20 км - облачно с прояснениями 758 764 +1.1 96% +12.7° - - - - -
19:00 +20.2° С-В 2 - 50 км - облачно с прояснениями 757 763 -0.2 66% +13.6° 1 км 2 - - -
16:00 +20.5° С-В 2 - 50 км небо без изменений {ливневые осадки} облачно 757 763 -0.5 67% +14.1° 1 км - - - -
13:00 +16.1° С 1 - 10 км слабый ливневый дождь облачно 757 764 +0.5 91% +14.6° 1 км - - - -
10:00 +16° С,С-В 3 - 20 км небо без изменений {ливневые осадки} облачно 757 763 +0.8 91% +14.6° 1 км - - - -
07:00 +15.1° В,С-В 3 - 20 км слабый ливневый дождь облачно 756 763 +1.4 94% +14.1° 1 км 0 Влажная (без луж) - -
04:00 +15.7° С 2 - 20 км - переменная облачность 755 761 +0.2 91% +14.2° - - - - -
01:00 +15.7° С-З 1 - 20 км - облачно с прояснениями 755 761 +0.4 94% +14.8° более 2.5 км - - - -
Вторник, 14 Августа
Время местн. Темп Ветер Видим Явления Облачность нижн/средн/верх Атм. давл. Влжн Точка росы ВНГО R Сост. почвы Tg s
Напр Скр Прв ур.ст ур.м изм
22:00 +17.8° С-В 1 - 20 км - облачно с прояснениями 754 761 +1.1 95% +17° 1 км - - - -
19:00 +24.7° В 2 - 50 км - облачно 753 759 +0.2 64% +17.5° 1 км 0 - - -
16:00 +25.8° В 3 - 50 км - облачно 753 759 -0.7 58% +16.9° 1 км - - - -
13:00 +23.9° С-В 3 - 50 км - облачно 754 760 +0.1 67% +17.4° 1 км - - - -
10:00 +20.5° В,С-В 3 - 50 км - облачно 754 760 +0.6 77% +16.3° 1 км - - - -
07:00 +15.1° С 1 - 50 км - облачно 753 760 +0.8 96% +14.5° - 0 Сухая (без трещин) - -
04:00 +16.6° С-З 2 - 20 км - переменная облачность 752 759 -0.1 93% +15.5° - - - - -
01:00 +17.8° С-З 2 - 20 км - переменная облачность 752 759 +0.5 92% +16.4° более 2.5 км - - - -
Понедельник, 13 Августа
Время местн. Темп Ветер Видим Явления Облачность нижн/средн/верх Атм. давл. Влжн Точка росы ВНГО R Сост. почвы Tg s
Напр Скр Прв ур.ст ур.м изм
22:00 +21° З,С-З 2 - 20 км - облачно с прояснениями 752 758 +1.1 79% +17.3° 1 км - - - -
19:00 +26.6° Ю-В 1 - 50 км - облачно 754 761 +0.2 62% +18.8° 1 км 0 - - -
16:00 +28.4° Ю-З 2 - 20 км - облачно 754 760 +3 58% +19.2° 1 км - - - -
13:00 +26.8° Ю-З 1 - 20 км - переменная облачность 751 757 -0.6 55% +16.9° 1 км - - - -
10:00 +20.1° С-З 2 - 20 км - облачно 752 758 +0.2 75% +15.5° 1 км - - - -
07:00 +13.7° З,С-З 1 - 50 км - облачно 752 758 +0.2 94% +12.8° 1 км 0 Влажная (без луж) - -
04:00 +13.3° С-З 2 - 20 км - переменная облачность 751 758 -0.3 96% +12.6° - - - - -